sensor_id;sensor_type;location;lat;lon;timestamp;P1;durP1;ratioP1;P2;durP2;ratioP2
76344;SDS011;65160;50.504;3.666;2023-03-19T00:01:50;7.20;;;3.50;;
76344;SDS011;65160;50.504;3.666;2023-03-19T00:04:16;7.10;;;3.10;;
76344;SDS011;65160;50.504;3.666;2023-03-19T00:06:42;6.10;;;2.75;;
76344;SDS011;65160;50.504;3.666;2023-03-19T00:09:07;5.70;;;3.15;;
76344;SDS011;65160;50.504;3.666;2023-03-19T00:11:33;5.15;;;3.30;;
76344;SDS011;65160;50.504;3.666;2023-03-19T00:13:59;5.80;;;2.88;;
76344;SDS011;65160;50.504;3.666;2023-03-19T00:16:24;5.40;;;2.97;;
76344;SDS011;65160;50.504;3.666;2023-03-19T00:18:51;5.40;;;3.10;;
76344;SDS011;65160;50.504;3.666;2023-03-19T00:21:16;6.07;;;3.28;;
76344;SDS011;65160;50.504;3.666;2023-03-19T00:23:42;7.03;;;3.10;;
76344;SDS011;65160;50.504;3.666;2023-03-19T00:26:07;9.02;;;3.05;;
76344;SDS011;65160;50.504;3.666;2023-03-19T00:28:33;6.00;;;3.40;;
76344;SDS011;65160;50.504;3.666;2023-03-19T00:31:06;6.75;;;3.60;;
76344;SDS011;65160;50.504;3.666;2023-03-19T00:33:36;6.80;;;3.10;;
76344;SDS011;65160;50.504;3.666;2023-03-19T00:36:02;5.95;;;3.33;;
76344;SDS011;65160;50.504;3.666;2023-03-19T00:38:29;6.90;;;3.17;;
76344;SDS011;65160;50.504;3.666;2023-03-19T00:40:55;6.38;;;3.20;;
76344;SDS011;65160;50.504;3.666;2023-03-19T00:43:21;7.28;;;3.83;;
76344;SDS011;65160;50.504;3.666;2023-03-19T00:45:47;6.72;;;3.92;;
76344;SDS011;65160;50.504;3.666;2023-03-19T00:48:13;6.30;;;3.90;;
76344;SDS011;65160;50.504;3.666;2023-03-19T00:50:38;12.35;;;5.65;;
76344;SDS011;65160;50.504;3.666;2023-03-19T00:53:04;13.25;;;8.50;;
76344;SDS011;65160;50.504;3.666;2023-03-19T00:55:29;6.47;;;4.20;;
76344;SDS011;65160;50.504;3.666;2023-03-19T00:57:55;10.38;;;4.60;;
76344;SDS011;65160;50.504;3.666;2023-03-19T01:00:21;11.10;;;4.85;;
76344;SDS011;65160;50.504;3.666;2023-03-19T01:02:46;8.98;;;5.28;;
76344;SDS011;65160;50.504;3.666;2023-03-19T01:05:12;10.43;;;4.72;;
76344;SDS011;65160;50.504;3.666;2023-03-19T01:07:38;8.68;;;4.50;;
76344;SDS011;65160;50.504;3.666;2023-03-19T01:10:03;7.78;;;4.82;;
76344;SDS011;65160;50.504;3.666;2023-03-19T01:12:30;8.05;;;4.80;;
76344;SDS011;65160;50.504;3.666;2023-03-19T01:14:55;10.10;;;5.30;;
76344;SDS011;65160;50.504;3.666;2023-03-19T01:17:21;7.78;;;5.03;;
76344;SDS011;65160;50.504;3.666;2023-03-19T01:19:47;8.75;;;5.13;;
76344;SDS011;65160;50.504;3.666;2023-03-19T01:22:13;9.13;;;5.03;;
76344;SDS011;65160;50.504;3.666;2023-03-19T01:24:40;10.18;;;5.35;;
76344;SDS011;65160;50.504;3.666;2023-03-19T01:27:06;11.20;;;5.75;;
76344;SDS011;65160;50.504;3.666;2023-03-19T01:29:32;7.22;;;4.65;;
76344;SDS011;65160;50.504;3.666;2023-03-19T01:31:58;9.90;;;5.40;;
76344;SDS011;65160;50.504;3.666;2023-03-19T01:34:23;9.57;;;5.63;;
76344;SDS011;65160;50.504;3.666;2023-03-19T01:36:49;8.98;;;5.55;;
76344;SDS011;65160;50.504;3.666;2023-03-19T01:39:14;10.10;;;5.72;;
76344;SDS011;65160;50.504;3.666;2023-03-19T01:41:40;11.02;;;6.00;;
76344;SDS011;65160;50.504;3.666;2023-03-19T01:44:22;9.02;;;5.88;;
76344;SDS011;65160;50.504;3.666;2023-03-19T01:46:52;9.93;;;6.53;;
76344;SDS011;65160;50.504;3.666;2023-03-19T01:49:18;11.05;;;6.40;;
76344;SDS011;65160;50.504;3.666;2023-03-19T01:51:45;11.45;;;6.63;;
76344;SDS011;65160;50.504;3.666;2023-03-19T01:54:15;11.82;;;7.03;;
76344;SDS011;65160;50.504;3.666;2023-03-19T01:56:45;10.82;;;6.50;;
76344;SDS011;65160;50.504;3.666;2023-03-19T02:02:05;11.68;;;7.05;;
76344;SDS011;65160;50.504;3.666;2023-03-19T02:04:55;10.95;;;6.95;;
76344;SDS011;65160;50.504;3.666;2023-03-19T02:07:24;11.02;;;7.00;;
76344;SDS011;65160;50.504;3.666;2023-03-19T02:09:51;10.93;;;7.45;;
76344;SDS011;65160;50.504;3.666;2023-03-19T02:12:18;9.50;;;6.47;;
76344;SDS011;65160;50.504;3.666;2023-03-19T02:14:43;9.80;;;6.30;;
76344;SDS011;65160;50.504;3.666;2023-03-19T02:17:09;9.68;;;6.35;;
76344;SDS011;65160;50.504;3.666;2023-03-19T02:19:56;10.57;;;6.00;;
76344;SDS011;65160;50.504;3.666;2023-03-19T02:22:33;9.35;;;6.57;;
76344;SDS011;65160;50.504;3.666;2023-03-19T02:27:33;9.38;;;5.68;;
76344;SDS011;65160;50.504;3.666;2023-03-19T02:29:59;10.13;;;6.40;;
76344;SDS011;65160;50.504;3.666;2023-03-19T02:32:25;10.00;;;6.70;;
76344;SDS011;65160;50.504;3.666;2023-03-19T02:34:51;8.93;;;6.22;;
76344;SDS011;65160;50.504;3.666;2023-03-19T02:37:18;10.05;;;6.75;;
76344;SDS011;65160;50.504;3.666;2023-03-19T02:42:35;11.30;;;6.30;;
76344;SDS011;65160;50.504;3.666;2023-03-19T02:45:01;8.82;;;5.85;;
76344;SDS011;65160;50.504;3.666;2023-03-19T02:47:26;8.93;;;6.13;;
76344;SDS011;65160;50.504;3.666;2023-03-19T02:49:52;11.00;;;6.07;;
76344;SDS011;65160;50.504;3.666;2023-03-19T02:52:17;11.27;;;6.90;;
76344;SDS011;65160;50.504;3.666;2023-03-19T02:54:43;9.65;;;6.47;;
76344;SDS011;65160;50.504;3.666;2023-03-19T02:57:09;10.82;;;6.68;;
76344;SDS011;65160;50.504;3.666;2023-03-19T02:59:35;9.85;;;6.00;;
76344;SDS011;65160;50.504;3.666;2023-03-19T03:02:00;10.98;;;5.78;;
76344;SDS011;65160;50.504;3.666;2023-03-19T03:04:26;10.90;;;5.93;;
76344;SDS011;65160;50.504;3.666;2023-03-19T03:06:51;9.93;;;6.20;;
76344;SDS011;65160;50.504;3.666;2023-03-19T03:09:17;9.48;;;5.90;;
76344;SDS011;65160;50.504;3.666;2023-03-19T03:11:43;9.93;;;5.65;;
76344;SDS011;65160;50.504;3.666;2023-03-19T03:14:08;10.38;;;5.65;;
76344;SDS011;65160;50.504;3.666;2023-03-19T03:16:35;11.82;;;6.25;;
76344;SDS011;65160;50.504;3.666;2023-03-19T03:19:01;9.68;;;6.35;;
76344;SDS011;65160;50.504;3.666;2023-03-19T03:21:27;9.75;;;5.82;;
76344;SDS011;65160;50.504;3.666;2023-03-19T03:23:53;9.63;;;6.35;;
76344;SDS011;65160;50.504;3.666;2023-03-19T03:26:19;12.10;;;6.00;;
76344;SDS011;65160;50.504;3.666;2023-03-19T03:28:44;10.10;;;6.13;;
76344;SDS011;65160;50.504;3.666;2023-03-19T03:31:10;9.90;;;5.93;;
76344;SDS011;65160;50.504;3.666;2023-03-19T03:33:36;11.07;;;6.68;;
76344;SDS011;65160;50.504;3.666;2023-03-19T03:36:01;10.35;;;6.00;;
76344;SDS011;65160;50.504;3.666;2023-03-19T03:38:27;9.55;;;5.47;;
76344;SDS011;65160;50.504;3.666;2023-03-19T03:40:53;8.88;;;5.50;;
76344;SDS011;65160;50.504;3.666;2023-03-19T03:43:18;10.00;;;5.80;;
76344;SDS011;65160;50.504;3.666;2023-03-19T03:45:45;9.80;;;5.95;;
76344;SDS011;65160;50.504;3.666;2023-03-19T03:48:12;9.95;;;5.70;;
76344;SDS011;65160;50.504;3.666;2023-03-19T03:50:38;9.98;;;5.90;;
76344;SDS011;65160;50.504;3.666;2023-03-19T03:53:03;10.10;;;5.18;;
76344;SDS011;65160;50.504;3.666;2023-03-19T03:55:29;8.02;;;4.68;;
76344;SDS011;65160;50.504;3.666;2023-03-19T03:57:55;9.00;;;5.32;;
76344;SDS011;65160;50.504;3.666;2023-03-19T04:00:21;9.02;;;4.97;;
76344;SDS011;65160;50.504;3.666;2023-03-19T04:02:48;9.75;;;5.25;;
76344;SDS011;65160;50.504;3.666;2023-03-19T04:05:14;8.05;;;5.35;;
76344;SDS011;65160;50.504;3.666;2023-03-19T04:07:40;11.98;;;6.10;;
76344;SDS011;65160;50.504;3.666;2023-03-19T04:10:07;9.70;;;5.82;;
76344;SDS011;65160;50.504;3.666;2023-03-19T04:12:33;8.90;;;5.47;;
76344;SDS011;65160;50.504;3.666;2023-03-19T04:15:01;10.85;;;6.18;;
76344;SDS011;65160;50.504;3.666;2023-03-19T04:17:28;10.98;;;6.25;;
76344;SDS011;65160;50.504;3.666;2023-03-19T04:19:53;10.02;;;5.85;;
76344;SDS011;65160;50.504;3.666;2023-03-19T04:22:19;11.05;;;5.60;;
76344;SDS011;65160;50.504;3.666;2023-03-19T04:24:45;8.43;;;4.55;;
76344;SDS011;65160;50.504;3.666;2023-03-19T04:27:10;8.35;;;4.93;;
76344;SDS011;65160;50.504;3.666;2023-03-19T04:29:36;8.75;;;4.57;;
76344;SDS011;65160;50.504;3.666;2023-03-19T04:32:01;9.57;;;4.88;;
76344;SDS011;65160;50.504;3.666;2023-03-19T04:34:27;8.93;;;4.38;;
76344;SDS011;65160;50.504;3.666;2023-03-19T04:36:52;7.75;;;4.20;;
76344;SDS011;65160;50.504;3.666;2023-03-19T04:39:18;8.88;;;4.97;;
76344;SDS011;65160;50.504;3.666;2023-03-19T04:41:43;8.00;;;3.13;;
76344;SDS011;65160;50.504;3.666;2023-03-19T04:44:09;9.65;;;3.30;;
76344;SDS011;65160;50.504;3.666;2023-03-19T04:46:35;14.00;;;3.15;;
76344;SDS011;65160;50.504;3.666;2023-03-19T04:49:01;11.73;;;3.53;;
76344;SDS011;65160;50.504;3.666;2023-03-19T04:51:26;10.00;;;2.97;;
76344;SDS011;65160;50.504;3.666;2023-03-19T04:53:52;10.57;;;3.75;;
76344;SDS011;65160;50.504;3.666;2023-03-19T04:56:18;7.07;;;2.95;;
76344;SDS011;65160;50.504;3.666;2023-03-19T04:58:44;9.45;;;4.22;;
76344;SDS011;65160;50.504;3.666;2023-03-19T05:01:10;9.45;;;4.18;;
76344;SDS011;65160;50.504;3.666;2023-03-19T05:03:36;8.57;;;3.90;;
76344;SDS011;65160;50.504;3.666;2023-03-19T05:06:01;8.25;;;3.95;;
76344;SDS011;65160;50.504;3.666;2023-03-19T05:08:27;8.93;;;4.63;;
76344;SDS011;65160;50.504;3.666;2023-03-19T05:10:53;8.25;;;4.00;;
76344;SDS011;65160;50.504;3.666;2023-03-19T05:13:18;8.23;;;4.55;;
76344;SDS011;65160;50.504;3.666;2023-03-19T05:15:44;8.68;;;3.92;;
76344;SDS011;65160;50.504;3.666;2023-03-19T05:18:10;10.23;;;5.30;;
76344;SDS011;65160;50.504;3.666;2023-03-19T05:20:36;7.90;;;4.72;;
76344;SDS011;65160;50.504;3.666;2023-03-19T05:23:02;11.05;;;4.97;;
76344;SDS011;65160;50.504;3.666;2023-03-19T05:25:28;9.68;;;5.50;;
76344;SDS011;65160;50.504;3.666;2023-03-19T05:27:54;12.88;;;4.82;;
76344;SDS011;65160;50.504;3.666;2023-03-19T05:30:20;10.13;;;4.93;;
76344;SDS011;65160;50.504;3.666;2023-03-19T05:32:47;10.93;;;5.18;;
76344;SDS011;65160;50.504;3.666;2023-03-19T05:35:14;9.40;;;5.70;;
76344;SDS011;65160;50.504;3.666;2023-03-19T05:37:41;11.02;;;5.70;;
76344;SDS011;65160;50.504;3.666;2023-03-19T05:40:07;10.63;;;5.35;;
76344;SDS011;65160;50.504;3.666;2023-03-19T05:42:33;9.23;;;6.32;;
76344;SDS011;65160;50.504;3.666;2023-03-19T05:44:58;9.73;;;6.00;;
76344;SDS011;65160;50.504;3.666;2023-03-19T05:47:24;8.82;;;5.53;;
76344;SDS011;65160;50.504;3.666;2023-03-19T05:49:49;8.90;;;5.25;;
76344;SDS011;65160;50.504;3.666;2023-03-19T05:52:15;8.75;;;5.25;;
76344;SDS011;65160;50.504;3.666;2023-03-19T05:54:40;14.55;;;6.50;;
76344;SDS011;65160;50.504;3.666;2023-03-19T05:57:06;12.07;;;6.95;;
76344;SDS011;65160;50.504;3.666;2023-03-19T05:59:32;9.02;;;5.78;;
76344;SDS011;65160;50.504;3.666;2023-03-19T06:01:58;9.30;;;5.38;;
76344;SDS011;65160;50.504;3.666;2023-03-19T06:04:23;7.88;;;4.68;;
76344;SDS011;65160;50.504;3.666;2023-03-19T06:06:50;12.50;;;7.88;;
76344;SDS011;65160;50.504;3.666;2023-03-19T06:09:15;19.80;;;9.82;;
76344;SDS011;65160;50.504;3.666;2023-03-19T06:11:41;16.83;;;8.68;;
76344;SDS011;65160;50.504;3.666;2023-03-19T06:14:07;13.95;;;7.43;;
76344;SDS011;65160;50.504;3.666;2023-03-19T06:16:32;13.45;;;7.78;;
76344;SDS011;65160;50.504;3.666;2023-03-19T06:18:58;17.60;;;9.27;;
76344;SDS011;65160;50.504;3.666;2023-03-19T06:21:23;15.35;;;8.45;;
76344;SDS011;65160;50.504;3.666;2023-03-19T06:23:54;14.25;;;8.68;;
76344;SDS011;65160;50.504;3.666;2023-03-19T06:26:20;13.38;;;9.52;;
76344;SDS011;65160;50.504;3.666;2023-03-19T06:28:46;15.98;;;9.23;;
76344;SDS011;65160;50.504;3.666;2023-03-19T06:31:11;15.10;;;7.95;;
76344;SDS011;65160;50.504;3.666;2023-03-19T06:33:37;13.20;;;9.32;;
76344;SDS011;65160;50.504;3.666;2023-03-19T06:36:02;18.40;;;11.57;;
76344;SDS011;65160;50.504;3.666;2023-03-19T06:38:28;18.05;;;10.32;;
76344;SDS011;65160;50.504;3.666;2023-03-19T06:40:54;18.73;;;10.57;;
76344;SDS011;65160;50.504;3.666;2023-03-19T06:43:19;17.27;;;10.25;;
76344;SDS011;65160;50.504;3.666;2023-03-19T06:45:45;18.17;;;8.98;;
76344;SDS011;65160;50.504;3.666;2023-03-19T06:48:11;11.48;;;7.88;;
76344;SDS011;65160;50.504;3.666;2023-03-19T06:50:36;12.68;;;8.07;;
76344;SDS011;65160;50.504;3.666;2023-03-19T06:53:02;12.48;;;8.23;;
76344;SDS011;65160;50.504;3.666;2023-03-19T06:55:27;16.63;;;7.40;;
76344;SDS011;65160;50.504;3.666;2023-03-19T06:57:55;12.23;;;8.13;;
76344;SDS011;65160;50.504;3.666;2023-03-19T07:00:21;11.38;;;7.78;;
76344;SDS011;65160;50.504;3.666;2023-03-19T07:02:47;12.65;;;7.72;;
76344;SDS011;65160;50.504;3.666;2023-03-19T07:05:12;13.68;;;8.32;;
76344;SDS011;65160;50.504;3.666;2023-03-19T07:07:39;13.10;;;7.85;;
76344;SDS011;65160;50.504;3.666;2023-03-19T07:10:04;14.93;;;9.82;;
76344;SDS011;65160;50.504;3.666;2023-03-19T07:12:30;15.75;;;9.10;;
76344;SDS011;65160;50.504;3.666;2023-03-19T07:14:56;13.25;;;8.05;;
76344;SDS011;65160;50.504;3.666;2023-03-19T07:17:22;14.57;;;9.00;;
76344;SDS011;65160;50.504;3.666;2023-03-19T07:19:48;16.10;;;9.25;;
76344;SDS011;65160;50.504;3.666;2023-03-19T07:22:14;15.00;;;9.25;;
76344;SDS011;65160;50.504;3.666;2023-03-19T07:24:40;13.48;;;9.00;;
76344;SDS011;65160;50.504;3.666;2023-03-19T07:27:05;13.38;;;8.77;;
76344;SDS011;65160;50.504;3.666;2023-03-19T07:29:31;14.93;;;8.65;;
76344;SDS011;65160;50.504;3.666;2023-03-19T07:31:57;13.88;;;9.02;;
76344;SDS011;65160;50.504;3.666;2023-03-19T07:34:22;15.73;;;9.55;;
76344;SDS011;65160;50.504;3.666;2023-03-19T07:36:48;15.20;;;9.60;;
76344;SDS011;65160;50.504;3.666;2023-03-19T07:39:13;13.82;;;9.20;;
76344;SDS011;65160;50.504;3.666;2023-03-19T07:41:39;17.08;;;9.07;;
76344;SDS011;65160;50.504;3.666;2023-03-19T07:44:05;13.57;;;8.57;;
76344;SDS011;65160;50.504;3.666;2023-03-19T07:46:31;16.48;;;10.65;;
76344;SDS011;65160;50.504;3.666;2023-03-19T07:48:56;14.13;;;9.07;;
76344;SDS011;65160;50.504;3.666;2023-03-19T07:51:22;12.85;;;8.48;;
76344;SDS011;65160;50.504;3.666;2023-03-19T07:53:47;14.85;;;8.35;;
76344;SDS011;65160;50.504;3.666;2023-03-19T07:56:13;16.63;;;7.60;;
76344;SDS011;65160;50.504;3.666;2023-03-19T07:58:39;15.60;;;7.32;;
76344;SDS011;65160;50.504;3.666;2023-03-19T08:01:04;13.82;;;7.93;;
76344;SDS011;65160;50.504;3.666;2023-03-19T08:03:31;14.73;;;7.93;;
76344;SDS011;65160;50.504;3.666;2023-03-19T08:05:57;12.95;;;7.18;;
76344;SDS011;65160;50.504;3.666;2023-03-19T08:08:23;14.95;;;7.95;;
76344;SDS011;65160;50.504;3.666;2023-03-19T08:10:48;17.02;;;7.57;;
76344;SDS011;65160;50.504;3.666;2023-03-19T08:13:15;15.57;;;7.95;;
76344;SDS011;65160;50.504;3.666;2023-03-19T08:15:40;16.58;;;8.65;;
76344;SDS011;65160;50.504;3.666;2023-03-19T08:18:06;15.98;;;8.25;;
76344;SDS011;65160;50.504;3.666;2023-03-19T08:20:32;15.82;;;7.15;;
76344;SDS011;65160;50.504;3.666;2023-03-19T08:22:57;18.60;;;7.47;;
76344;SDS011;65160;50.504;3.666;2023-03-19T08:25:23;11.88;;;6.65;;
76344;SDS011;65160;50.504;3.666;2023-03-19T08:27:50;13.35;;;7.05;;
76344;SDS011;65160;50.504;3.666;2023-03-19T08:30:15;14.52;;;7.88;;
76344;SDS011;65160;50.504;3.666;2023-03-19T08:32:42;14.95;;;7.05;;
76344;SDS011;65160;50.504;3.666;2023-03-19T08:35:10;13.18;;;7.03;;
76344;SDS011;65160;50.504;3.666;2023-03-19T08:37:35;11.88;;;7.15;;
76344;SDS011;65160;50.504;3.666;2023-03-19T08:40:02;12.93;;;7.03;;
76344;SDS011;65160;50.504;3.666;2023-03-19T08:42:28;10.35;;;6.82;;
76344;SDS011;65160;50.504;3.666;2023-03-19T08:44:54;15.02;;;8.25;;
76344;SDS011;65160;50.504;3.666;2023-03-19T08:47:20;12.35;;;7.70;;
76344;SDS011;65160;50.504;3.666;2023-03-19T08:49:48;13.82;;;7.68;;
76344;SDS011;65160;50.504;3.666;2023-03-19T08:52:15;15.88;;;8.73;;
76344;SDS011;65160;50.504;3.666;2023-03-19T08:54:40;20.67;;;10.43;;
76344;SDS011;65160;50.504;3.666;2023-03-19T08:57:06;27.30;;;11.35;;
76344;SDS011;65160;50.504;3.666;2023-03-19T08:59:31;19.13;;;9.90;;
76344;SDS011;65160;50.504;3.666;2023-03-19T09:01:57;16.30;;;9.13;;
76344;SDS011;65160;50.504;3.666;2023-03-19T09:04:22;14.35;;;9.48;;
76344;SDS011;65160;50.504;3.666;2023-03-19T09:06:48;14.07;;;8.02;;
76344;SDS011;65160;50.504;3.666;2023-03-19T09:09:20;12.93;;;7.10;;
76344;SDS011;65160;50.504;3.666;2023-03-19T09:11:47;21.40;;;8.52;;
76344;SDS011;65160;50.504;3.666;2023-03-19T09:14:14;14.35;;;7.50;;
76344;SDS011;65160;50.504;3.666;2023-03-19T09:16:40;12.48;;;7.22;;
76344;SDS011;65160;50.504;3.666;2023-03-19T09:19:07;16.27;;;8.18;;
76344;SDS011;65160;50.504;3.666;2023-03-19T09:21:33;18.20;;;9.65;;
76344;SDS011;65160;50.504;3.666;2023-03-19T09:24:00;11.88;;;7.70;;
76344;SDS011;65160;50.504;3.666;2023-03-19T09:26:26;12.05;;;7.03;;
76344;SDS011;65160;50.504;3.666;2023-03-19T09:28:52;15.68;;;8.40;;
76344;SDS011;65160;50.504;3.666;2023-03-19T09:31:17;15.02;;;7.90;;
76344;SDS011;65160;50.504;3.666;2023-03-19T09:33:43;14.68;;;8.00;;
76344;SDS011;65160;50.504;3.666;2023-03-19T09:36:08;14.07;;;8.40;;
76344;SDS011;65160;50.504;3.666;2023-03-19T09:38:34;18.33;;;9.10;;
76344;SDS011;65160;50.504;3.666;2023-03-19T09:43:45;15.55;;;8.18;;
76344;SDS011;65160;50.504;3.666;2023-03-19T09:46:45;13.25;;;7.20;;
76344;SDS011;65160;50.504;3.666;2023-03-19T09:49:24;15.77;;;8.70;;
76344;SDS011;65160;50.504;3.666;2023-03-19T09:51:55;14.27;;;7.88;;
76344;SDS011;65160;50.504;3.666;2023-03-19T09:56:50;16.77;;;9.20;;
76344;SDS011;65160;50.504;3.666;2023-03-19T09:59:16;16.35;;;9.07;;
76344;SDS011;65160;50.504;3.666;2023-03-19T10:01:44;17.60;;;8.60;;
76344;SDS011;65160;50.504;3.666;2023-03-19T10:15:28;17.13;;;9.98;;
76344;SDS011;65160;50.504;3.666;2023-03-19T10:18:02;16.58;;;9.45;;
76344;SDS011;65160;50.504;3.666;2023-03-19T10:20:42;21.13;;;12.30;;
76344;SDS011;65160;50.504;3.666;2023-03-19T10:25:53;17.95;;;11.20;;
76344;SDS011;65160;50.504;3.666;2023-03-19T10:28:21;22.17;;;10.43;;
76344;SDS011;65160;50.504;3.666;2023-03-19T10:33:53;18.60;;;11.05;;
76344;SDS011;65160;50.504;3.666;2023-03-19T10:36:31;21.60;;;12.10;;
76344;SDS011;65160;50.504;3.666;2023-03-19T10:38:59;22.67;;;11.97;;
76344;SDS011;65160;50.504;3.666;2023-03-19T10:44:28;18.50;;;11.23;;
76344;SDS011;65160;50.504;3.666;2023-03-19T10:47:08;19.63;;;10.88;;
76344;SDS011;65160;50.504;3.666;2023-03-19T10:49:35;17.42;;;11.57;;
76344;SDS011;65160;50.504;3.666;2023-03-19T10:52:02;19.73;;;11.27;;
76344;SDS011;65160;50.504;3.666;2023-03-19T10:54:28;19.30;;;11.38;;
76344;SDS011;65160;50.504;3.666;2023-03-19T10:56:55;21.52;;;11.43;;
76344;SDS011;65160;50.504;3.666;2023-03-19T10:59:41;19.95;;;12.23;;
76344;SDS011;65160;50.504;3.666;2023-03-19T11:02:18;20.00;;;12.93;;
76344;SDS011;65160;50.504;3.666;2023-03-19T11:04:46;19.60;;;11.63;;
76344;SDS011;65160;50.504;3.666;2023-03-19T11:07:13;17.17;;;11.02;;
76344;SDS011;65160;50.504;3.666;2023-03-19T11:12:17;17.17;;;9.15;;
76344;SDS011;65160;50.504;3.666;2023-03-19T11:14:48;17.63;;;10.27;;
76344;SDS011;65160;50.504;3.666;2023-03-19T11:19:56;15.75;;;9.75;;
76344;SDS011;65160;50.504;3.666;2023-03-19T11:22:24;14.07;;;8.23;;
76344;SDS011;65160;50.504;3.666;2023-03-19T11:25:02;16.10;;;9.52;;
76344;SDS011;65160;50.504;3.666;2023-03-19T11:27:38;16.30;;;9.15;;
76344;SDS011;65160;50.504;3.666;2023-03-19T11:30:16;15.98;;;9.10;;
76344;SDS011;65160;50.504;3.666;2023-03-19T11:35:34;17.88;;;9.85;;
76344;SDS011;65160;50.504;3.666;2023-03-19T11:38:05;14.55;;;8.50;;
76344;SDS011;65160;50.504;3.666;2023-03-19T11:40:46;16.30;;;8.75;;
76344;SDS011;65160;50.504;3.666;2023-03-19T11:46:41;15.02;;;8.95;;
76344;SDS011;65160;50.504;3.666;2023-03-19T11:51:55;14.07;;;7.40;;
76344;SDS011;65160;50.504;3.666;2023-03-19T11:54:38;12.05;;;7.07;;
76344;SDS011;65160;50.504;3.666;2023-03-19T11:57:52;12.25;;;7.63;;
76344;SDS011;65160;50.504;3.666;2023-03-19T12:03:16;11.35;;;6.75;;
76344;SDS011;65160;50.504;3.666;2023-03-19T12:08:41;14.07;;;7.75;;
76344;SDS011;65160;50.504;3.666;2023-03-19T12:11:27;10.73;;;7.47;;
76344;SDS011;65160;50.504;3.666;2023-03-19T12:28:02;13.27;;;7.57;;
76344;SDS011;65160;50.504;3.666;2023-03-19T12:33:30;11.52;;;7.00;;
76344;SDS011;65160;50.504;3.666;2023-03-19T12:36:01;15.68;;;9.75;;
76344;SDS011;65160;50.504;3.666;2023-03-19T12:38:36;18.00;;;10.50;;
76344;SDS011;65160;50.504;3.666;2023-03-19T12:41:17;14.65;;;10.60;;
76344;SDS011;65160;50.504;3.666;2023-03-19T12:44:03;13.70;;;8.88;;
76344;SDS011;65160;50.504;3.666;2023-03-19T12:49:37;14.70;;;8.82;;
76344;SDS011;65160;50.504;3.666;2023-03-19T12:52:16;13.70;;;9.23;;
76344;SDS011;65160;50.504;3.666;2023-03-19T12:57:35;12.63;;;8.43;;
76344;SDS011;65160;50.504;3.666;2023-03-19T13:00:09;11.90;;;7.63;;
76344;SDS011;65160;50.504;3.666;2023-03-19T13:10:52;11.90;;;7.35;;
76344;SDS011;65160;50.504;3.666;2023-03-19T13:13:53;12.05;;;7.43;;
76344;SDS011;65160;50.504;3.666;2023-03-19T13:22:12;15.02;;;9.55;;
76344;SDS011;65160;50.504;3.666;2023-03-19T13:24:41;16.10;;;9.52;;
76344;SDS011;65160;50.504;3.666;2023-03-19T13:27:23;17.05;;;9.55;;
76344;SDS011;65160;50.504;3.666;2023-03-19T13:30:00;13.52;;;8.65;;
76344;SDS011;65160;50.504;3.666;2023-03-19T13:32:41;13.60;;;8.35;;
76344;SDS011;65160;50.504;3.666;2023-03-19T13:38:00;10.90;;;6.63;;
76344;SDS011;65160;50.504;3.666;2023-03-19T13:46:01;9.73;;;5.40;;
76344;SDS011;65160;50.504;3.666;2023-03-19T13:48:34;10.48;;;5.30;;
76344;SDS011;65160;50.504;3.666;2023-03-19T13:51:02;11.63;;;6.00;;
76344;SDS011;65160;50.504;3.666;2023-03-19T13:55:59;13.07;;;8.13;;
76344;SDS011;65160;50.504;3.666;2023-03-19T13:58:28;17.73;;;7.60;;
76344;SDS011;65160;50.504;3.666;2023-03-19T14:03:54;15.15;;;7.53;;
76344;SDS011;65160;50.504;3.666;2023-03-19T14:10:01;17.92;;;7.93;;
76344;SDS011;65160;50.504;3.666;2023-03-19T14:12:49;18.40;;;9.65;;
76344;SDS011;65160;50.504;3.666;2023-03-19T14:31:44;14.27;;;7.03;;
76344;SDS011;65160;50.504;3.666;2023-03-19T14:36:40;12.73;;;7.70;;
76344;SDS011;65160;50.504;3.666;2023-03-19T14:39:23;11.50;;;7.00;;
76344;SDS011;65160;50.504;3.666;2023-03-19T14:41:55;12.30;;;7.10;;
76344;SDS011;65160;50.504;3.666;2023-03-19T14:49:50;14.80;;;7.78;;
76344;SDS011;65160;50.504;3.666;2023-03-19T14:52:30;16.67;;;6.88;;
76344;SDS011;65160;50.504;3.666;2023-03-19T14:54:59;16.05;;;7.18;;
76344;SDS011;65160;50.504;3.666;2023-03-19T14:57:29;12.73;;;6.93;;
76344;SDS011;65160;50.504;3.666;2023-03-19T14:59:58;18.77;;;8.90;;
76344;SDS011;65160;50.504;3.666;2023-03-19T15:02:32;14.88;;;8.68;;
76344;SDS011;65160;50.504;3.666;2023-03-19T15:04:58;17.58;;;9.23;;
76344;SDS011;65160;50.504;3.666;2023-03-19T15:07:29;13.20;;;7.95;;
76344;SDS011;65160;50.504;3.666;2023-03-19T15:09:58;17.77;;;7.80;;
76344;SDS011;65160;50.504;3.666;2023-03-19T15:18:07;16.95;;;8.70;;
76344;SDS011;65160;50.504;3.666;2023-03-19T15:20:36;17.63;;;10.00;;
76344;SDS011;65160;50.504;3.666;2023-03-19T15:23:09;18.67;;;9.50;;
76344;SDS011;65160;50.504;3.666;2023-03-19T15:26:09;19.25;;;9.05;;
76344;SDS011;65160;50.504;3.666;2023-03-19T15:28:32;17.02;;;10.05;;
76344;SDS011;65160;50.504;3.666;2023-03-19T15:31:08;17.90;;;11.93;;
76344;SDS011;65160;50.504;3.666;2023-03-19T15:33:35;20.65;;;10.52;;
76344;SDS011;65160;50.504;3.666;2023-03-19T15:36:03;23.10;;;11.82;;
76344;SDS011;65160;50.504;3.666;2023-03-19T15:41:10;23.25;;;11.93;;
76344;SDS011;65160;50.504;3.666;2023-03-19T15:43:37;22.27;;;13.57;;
76344;SDS011;65160;50.504;3.666;2023-03-19T15:46:05;24.27;;;13.55;;
76344;SDS011;65160;50.504;3.666;2023-03-19T15:48:42;31.45;;;13.88;;
76344;SDS011;65160;50.504;3.666;2023-03-19T15:51:12;24.05;;;13.80;;
76344;SDS011;65160;50.504;3.666;2023-03-19T15:53:40;22.25;;;13.52;;
76344;SDS011;65160;50.504;3.666;2023-03-19T15:56:06;22.80;;;13.02;;
76344;SDS011;65160;50.504;3.666;2023-03-19T15:58:36;23.58;;;12.95;;
76344;SDS011;65160;50.504;3.666;2023-03-19T16:01:05;27.02;;;14.48;;
76344;SDS011;65160;50.504;3.666;2023-03-19T16:03:40;29.80;;;16.35;;
76344;SDS011;65160;50.504;3.666;2023-03-19T16:06:19;30.73;;;15.90;;
76344;SDS011;65160;50.504;3.666;2023-03-19T16:08:49;27.33;;;15.45;;
76344;SDS011;65160;50.504;3.666;2023-03-19T16:11:29;27.88;;;16.00;;
76344;SDS011;65160;50.504;3.666;2023-03-19T16:14:20;30.45;;;14.45;;
76344;SDS011;65160;50.504;3.666;2023-03-19T16:17:11;28.15;;;14.43;;
76344;SDS011;65160;50.504;3.666;2023-03-19T16:19:54;27.33;;;14.70;;
76344;SDS011;65160;50.504;3.666;2023-03-19T16:22:29;25.65;;;12.35;;
76344;SDS011;65160;50.504;3.666;2023-03-19T16:24:56;25.83;;;13.10;;
76344;SDS011;65160;50.504;3.666;2023-03-19T16:29:58;26.92;;;11.95;;
76344;SDS011;65160;50.504;3.666;2023-03-19T16:32:25;23.10;;;14.73;;
76344;SDS011;65160;50.504;3.666;2023-03-19T16:40:00;26.33;;;12.27;;
76344;SDS011;65160;50.504;3.666;2023-03-19T16:44:56;21.08;;;10.10;;
76344;SDS011;65160;50.504;3.666;2023-03-19T16:47:27;16.52;;;9.98;;
76344;SDS011;65160;50.504;3.666;2023-03-19T16:49:52;20.70;;;9.70;;
76344;SDS011;65160;50.504;3.666;2023-03-19T16:52:21;16.98;;;9.30;;
76344;SDS011;65160;50.504;3.666;2023-03-19T16:54:48;14.38;;;8.27;;
76344;SDS011;65160;50.504;3.666;2023-03-19T16:57:16;18.35;;;8.73;;
76344;SDS011;65160;50.504;3.666;2023-03-19T16:59:42;18.63;;;9.48;;
76344;SDS011;65160;50.504;3.666;2023-03-19T17:02:14;15.68;;;8.27;;
76344;SDS011;65160;50.504;3.666;2023-03-19T17:04:41;16.27;;;7.18;;
76344;SDS011;65160;50.504;3.666;2023-03-19T17:07:08;17.70;;;8.05;;
76344;SDS011;65160;50.504;3.666;2023-03-19T17:09:35;16.65;;;7.68;;
76344;SDS011;65160;50.504;3.666;2023-03-19T17:12:00;18.77;;;7.22;;
76344;SDS011;65160;50.504;3.666;2023-03-19T17:14:28;17.77;;;7.65;;